createdAt,value
2018-03-15T00:01:58.519Z,48.70
2018-03-15T00:04:33.380Z,47.80
2018-03-15T00:07:01.804Z,52.95
2018-03-15T00:09:30.243Z,43.78
2018-03-15T00:11:58.645Z,52.50
2018-03-15T00:14:27.053Z,52.58
2018-03-15T00:16:55.546Z,47.60
2018-03-15T00:19:23.913Z,48.35
2018-03-15T00:21:52.390Z,47.83
2018-03-15T00:24:20.771Z,47.67
2018-03-15T00:26:49.184Z,50.00
2018-03-15T00:29:17.569Z,52.30
2018-03-15T00:31:45.923Z,46.95
2018-03-15T00:34:14.309Z,46.22
2018-03-15T00:36:42.692Z,39.33
2018-03-15T00:39:11.156Z,50.47
2018-03-15T00:41:39.583Z,50.22
2018-03-15T00:44:07.944Z,40.28
2018-03-15T00:46:36.425Z,37.53
2018-03-15T00:49:04.804Z,49.13
2018-03-15T00:51:33.604Z,39.95
2018-03-15T00:54:02.439Z,45.75
2018-03-15T00:56:30.944Z,38.10
2018-03-15T00:58:59.324Z,40.25
2018-03-15T01:01:27.691Z,35.28
2018-03-15T01:03:56.059Z,43.25
2018-03-15T01:06:24.444Z,41.55
2018-03-15T01:08:52.885Z,38.10
2018-03-15T01:11:21.260Z,37.97
2018-03-15T01:13:49.663Z,37.50
2018-03-15T01:16:18.131Z,33.92
2018-03-15T01:18:46.516Z,38.45
2018-03-15T01:21:14.919Z,35.10
2018-03-15T01:23:43.296Z,32.85
2018-03-15T01:26:11.920Z,37.45
2018-03-15T01:28:40.307Z,38.25
2018-03-15T01:31:08.699Z,34.55
2018-03-15T01:33:37.074Z,36.30
2018-03-15T01:36:05.456Z,38.78
2018-03-15T01:38:33.877Z,33.10
2018-03-15T01:41:02.244Z,42.88
2018-03-15T01:43:30.649Z,38.03
2018-03-15T01:45:59.035Z,35.35
2018-03-15T01:48:27.382Z,36.65
2018-03-15T01:50:55.813Z,38.38
2018-03-15T01:53:24.187Z,42.30
2018-03-15T01:55:52.660Z,42.08
2018-03-15T01:58:21.019Z,41.33
2018-03-15T02:00:49.395Z,47.42
2018-03-15T02:03:17.865Z,43.55
2018-03-15T02:05:46.240Z,40.12
2018-03-15T02:08:14.620Z,41.72
2018-03-15T02:10:42.990Z,47.15
2018-03-15T02:13:11.492Z,43.75
2018-03-15T02:15:39.886Z,42.17
2018-03-15T02:18:08.276Z,47.30
2018-03-15T02:20:36.697Z,44.67
2018-03-15T02:23:05.097Z,41.20
2018-03-15T02:25:33.479Z,39.67
2018-03-15T02:28:01.826Z,43.58
2018-03-15T02:30:30.227Z,43.05
2018-03-15T02:32:58.653Z,43.60
2018-03-15T02:35:27.065Z,43.40
2018-03-15T02:37:55.434Z,42.92
2018-03-15T02:40:23.792Z,42.33
2018-03-15T02:42:52.157Z,42.97
2018-03-15T02:45:20.680Z,40.83
2018-03-15T02:47:49.069Z,44.35
2018-03-15T02:50:17.442Z,45.50
2018-03-15T02:52:45.888Z,47.78
2018-03-15T02:55:14.236Z,43.13
2018-03-15T02:57:42.659Z,48.28
2018-03-15T03:00:11.032Z,47.00
2018-03-15T03:02:39.398Z,48.67
2018-03-15T03:05:07.759Z,45.70
2018-03-15T03:07:36.126Z,43.28
2018-03-15T03:10:04.592Z,47.17
2018-03-15T03:12:32.956Z,47.92
2018-03-15T03:15:01.371Z,54.10
2018-03-15T03:17:30.338Z,52.08
2018-03-15T03:19:58.703Z,47.92
2018-03-15T03:22:27.121Z,43.20
2018-03-15T03:24:55.485Z,44.50
2018-03-15T03:27:23.861Z,40.90
2018-03-15T03:29:52.211Z,43.65
2018-03-15T03:32:20.576Z,44.42
2018-03-15T03:34:49.023Z,42.20
2018-03-15T03:37:17.511Z,41.78
2018-03-15T03:39:45.874Z,37.20
2018-03-15T03:42:14.238Z,38.63
2018-03-15T03:44:42.603Z,42.33
2018-03-15T03:47:11.048Z,42.58
2018-03-15T03:49:39.403Z,36.65
2018-03-15T03:52:07.775Z,39.40
2018-03-15T03:54:36.166Z,41.92
2018-03-15T03:57:04.528Z,40.78
2018-03-15T03:59:32.936Z,45.65
2018-03-15T04:02:01.300Z,37.00
2018-03-15T04:04:29.676Z,40.45
2018-03-15T04:06:57.395Z,42.35
2018-03-15T04:09:25.522Z,48.45
2018-03-15T04:11:53.883Z,57.10
2018-03-15T04:14:22.274Z,47.90
2018-03-15T04:16:50.647Z,38.67
2018-03-15T04:19:19.004Z,46.75
2018-03-15T04:21:47.375Z,43.92
2018-03-15T04:24:15.876Z,38.00
2018-03-15T04:26:44.232Z,39.50
2018-03-15T04:29:12.601Z,41.90
2018-03-15T04:31:40.960Z,33.17
2018-03-15T04:34:09.332Z,38.78
2018-03-15T04:36:37.772Z,43.10
2018-03-15T04:39:06.156Z,39.60
2018-03-15T04:41:34.633Z,48.72
2018-03-15T04:44:03.024Z,44.53
2018-03-15T04:46:31.383Z,40.40
2018-03-15T04:48:59.894Z,40.42
2018-03-15T04:51:28.267Z,41.05
2018-03-15T04:53:56.848Z,45.47
2018-03-15T04:56:25.220Z,38.05
2018-03-15T04:58:53.581Z,44.70
2018-03-15T05:01:21.942Z,36.92
2018-03-15T05:03:50.313Z,43.17
2018-03-15T05:06:18.741Z,43.63
2018-03-15T05:08:47.201Z,40.47
2018-03-15T05:11:15.575Z,43.70
2018-03-15T05:13:43.941Z,40.42
2018-03-15T05:16:12.344Z,41.08
2018-03-15T05:18:40.783Z,42.78
2018-03-15T05:21:09.154Z,36.97
2018-03-15T05:23:37.520Z,42.30
2018-03-15T05:26:06.019Z,43.17
2018-03-15T05:28:34.389Z,44.10
2018-03-15T05:31:02.836Z,44.53
2018-03-15T05:33:31.200Z,45.15
2018-03-15T05:35:59.555Z,47.83
2018-03-15T05:38:27.949Z,40.03
2018-03-15T05:40:56.429Z,42.85
2018-03-15T05:43:24.825Z,48.95
2018-03-15T05:45:53.188Z,47.65
2018-03-15T05:48:21.639Z,41.65
2018-03-15T05:50:50.055Z,45.58
2018-03-15T05:53:18.480Z,48.13
2018-03-15T05:55:46.842Z,42.55
2018-03-15T05:58:15.216Z,47.30
2018-03-15T06:00:43.623Z,44.30
2018-03-15T06:03:12.010Z,44.53
2018-03-15T06:05:40.556Z,37.90
2018-03-15T06:08:08.923Z,41.15
2018-03-15T06:10:37.277Z,35.55
2018-03-15T06:13:05.639Z,36.33
2018-03-15T06:15:34.119Z,37.20
2018-03-15T06:18:02.628Z,37.92
2018-03-15T06:20:31.108Z,47.28
2018-03-15T06:22:59.640Z,34.40
2018-03-15T06:25:28.091Z,43.70
2018-03-15T06:27:56.459Z,35.78
2018-03-15T06:30:24.941Z,32.67
2018-03-15T06:32:53.375Z,36.85
2018-03-15T06:35:21.735Z,38.92
2018-03-15T06:37:50.108Z,38.28
2018-03-15T06:40:18.497Z,31.83
2018-03-15T06:42:47.220Z,37.17
2018-03-15T06:45:15.700Z,32.05
2018-03-15T06:47:44.122Z,31.02
2018-03-15T06:50:12.520Z,26.92
2018-03-15T06:52:40.918Z,24.23
2018-03-15T06:55:09.378Z,28.07
2018-03-15T06:57:37.726Z,21.67
2018-03-15T07:00:06.124Z,21.03
2018-03-15T07:02:34.578Z,22.07
2018-03-15T07:05:03.255Z,18.57
2018-03-15T07:07:31.737Z,18.77
2018-03-15T07:10:00.264Z,20.40
2018-03-15T07:12:28.760Z,24.00
2018-03-15T07:14:57.150Z,19.63
2018-03-15T07:17:25.628Z,17.87
2018-03-15T07:19:54.046Z,16.60
2018-03-15T07:22:22.475Z,19.20
2018-03-15T07:24:50.854Z,19.90
2018-03-15T07:27:19.262Z,17.47
2018-03-15T07:29:47.751Z,19.30
2018-03-15T07:32:16.333Z,17.30
2018-03-15T07:34:44.706Z,18.17
2018-03-15T07:37:13.309Z,21.03
2018-03-15T07:39:41.715Z,19.90
2018-03-15T07:42:10.089Z,21.93
2018-03-15T07:44:38.697Z,23.20
2018-03-15T07:47:07.091Z,22.57
2018-03-15T07:49:35.531Z,19.33
2018-03-15T07:52:03.875Z,22.83
2018-03-15T07:54:32.245Z,20.40
2018-03-15T07:57:00.676Z,21.00
2018-03-15T07:59:29.038Z,23.60
2018-03-15T08:01:57.449Z,17.87
2018-03-15T08:04:25.841Z,18.70
2018-03-15T08:06:54.214Z,20.77
2018-03-15T08:09:22.588Z,21.63
2018-03-15T08:11:50.953Z,21.77
2018-03-15T08:14:19.385Z,21.73
2018-03-15T08:16:47.738Z,29.30
2018-03-15T08:19:16.115Z,22.93
2018-03-15T08:21:44.493Z,23.30
2018-03-15T08:24:12.975Z,23.47
2018-03-15T08:26:42.259Z,22.80
2018-03-15T08:29:10.665Z,21.27
2018-03-15T08:31:39.052Z,25.57
2018-03-15T08:34:07.431Z,23.43
2018-03-15T08:36:35.803Z,23.67
2018-03-15T08:39:04.350Z,26.20
2018-03-15T08:41:32.734Z,20.53
2018-03-15T08:44:01.122Z,24.20
2018-03-15T08:46:29.515Z,21.00
2018-03-15T08:48:57.996Z,24.00
2018-03-15T08:51:26.430Z,22.30
2018-03-15T08:53:54.865Z,21.07
2018-03-15T08:56:23.265Z,19.23
2018-03-15T08:58:51.636Z,21.57
2018-03-15T09:01:20.019Z,22.33
2018-03-15T09:03:48.463Z,19.57
2018-03-15T09:06:16.849Z,23.03
2018-03-15T09:08:45.353Z,20.67
2018-03-15T09:11:13.688Z,17.97
2018-03-15T09:13:42.080Z,19.57
2018-03-15T09:16:10.520Z,22.53
2018-03-15T09:18:38.919Z,23.93
2018-03-15T09:21:07.314Z,20.87
2018-03-15T09:23:35.726Z,24.60
2018-03-15T09:26:04.093Z,22.33
2018-03-15T09:28:32.512Z,22.10
2018-03-15T09:31:00.915Z,21.13
2018-03-15T09:33:29.305Z,20.97
2018-03-15T09:35:57.697Z,20.03
2018-03-15T09:38:26.089Z,19.73
2018-03-15T09:40:54.563Z,21.80
2018-03-15T09:43:22.967Z,20.73
2018-03-15T09:45:51.375Z,44.53
2018-03-15T09:48:19.768Z,22.50
2018-03-15T09:50:48.153Z,22.60
2018-03-15T09:53:16.612Z,18.90
2018-03-15T09:55:45.023Z,20.53
2018-03-15T09:58:13.414Z,23.20
2018-03-15T10:00:41.799Z,20.70
2018-03-15T10:03:10.178Z,22.77
2018-03-15T10:05:38.728Z,22.80
2018-03-15T10:08:07.122Z,22.13
2018-03-15T10:10:35.524Z,22.43
2018-03-15T10:13:03.919Z,22.70
2018-03-15T10:15:32.340Z,20.27
2018-03-15T10:18:00.784Z,20.63
2018-03-15T10:20:29.185Z,18.90
2018-03-15T10:22:57.568Z,19.60
2018-03-15T10:25:26.392Z,19.57
2018-03-15T10:27:54.352Z,21.80
2018-03-15T10:30:22.768Z,18.67
2018-03-15T10:32:56.828Z,20.33
2018-03-15T10:35:28.413Z,22.10
2018-03-15T10:37:56.798Z,19.10
2018-03-15T10:40:25.180Z,20.97
2018-03-15T10:42:53.559Z,19.50
2018-03-15T10:45:22.043Z,17.90
2018-03-15T10:47:50.515Z,15.93
2018-03-15T10:50:18.935Z,19.10
2018-03-15T10:52:47.337Z,19.70
2018-03-15T10:55:15.723Z,19.80
2018-03-15T10:57:44.202Z,19.70
2018-03-15T11:00:12.646Z,17.10
2018-03-15T11:02:46.576Z,23.40
2018-03-15T11:05:20.932Z,23.07
2018-03-15T11:07:54.914Z,19.93
2018-03-15T11:10:23.366Z,22.30
2018-03-15T11:12:52.777Z,22.30
2018-03-15T11:15:21.132Z,22.30
2018-03-15T11:17:49.519Z,19.50
2018-03-15T11:20:17.948Z,21.37
2018-03-15T11:22:46.394Z,17.83
2018-03-15T11:25:14.799Z,25.80
2018-03-15T11:27:43.299Z,20.73
2018-03-15T11:30:11.687Z,19.83
2018-03-15T11:32:40.080Z,23.03
2018-03-15T11:35:08.545Z,19.50
2018-03-15T11:37:36.938Z,20.17
2018-03-15T11:40:05.343Z,18.73
2018-03-15T11:42:33.731Z,17.87
2018-03-15T11:45:02.120Z,19.13
2018-03-15T11:47:31.288Z,24.90
2018-03-15T11:49:59.684Z,17.60
2018-03-15T11:52:28.121Z,16.83
2018-03-15T11:54:56.504Z,18.97
2018-03-15T11:57:24.883Z,19.27
2018-03-15T11:59:53.340Z,18.80
2018-03-15T12:02:21.736Z,16.40
2018-03-15T12:04:50.143Z,19.33
2018-03-15T12:07:18.826Z,25.23
2018-03-15T12:09:47.291Z,18.50
2018-03-15T12:12:15.748Z,17.63
2018-03-15T12:14:44.124Z,17.43
2018-03-15T12:17:12.621Z,17.90
2018-03-15T12:19:40.987Z,17.10
2018-03-15T12:22:09.371Z,20.53
2018-03-15T12:24:37.814Z,20.13
2018-03-15T12:27:06.184Z,19.70
2018-03-15T12:29:34.557Z,17.80
2018-03-15T12:32:02.924Z,17.67
2018-03-15T12:34:31.302Z,19.60
2018-03-15T12:36:59.745Z,21.53
2018-03-15T12:39:28.098Z,20.97
2018-03-15T12:41:56.475Z,21.93
2018-03-15T12:44:24.957Z,19.70
2018-03-15T12:46:53.330Z,19.47
2018-03-15T12:49:21.843Z,20.17
2018-03-15T12:51:50.226Z,24.13
2018-03-15T12:54:18.618Z,24.40
2018-03-15T12:56:47.000Z,23.60
2018-03-15T12:59:15.363Z,21.60
2018-03-15T13:01:43.828Z,20.23
2018-03-15T13:04:12.192Z,23.17
2018-03-15T13:06:40.564Z,21.03
2018-03-15T13:09:08.978Z,21.70
2018-03-15T13:11:37.364Z,21.50
2018-03-15T13:14:05.747Z,19.40
2018-03-15T13:16:34.126Z,18.63
2018-03-15T13:19:02.496Z,18.30
2018-03-15T13:21:30.888Z,21.50
2018-03-15T13:23:59.272Z,21.00
2018-03-15T13:26:27.635Z,23.40
2018-03-15T13:28:56.037Z,21.83
2018-03-15T13:31:24.550Z,19.63
2018-03-15T13:33:52.953Z,21.70
2018-03-15T13:36:21.362Z,19.50
2018-03-15T13:38:49.946Z,21.03
2018-03-15T13:41:18.358Z,21.03
2018-03-15T13:43:46.768Z,23.40
2018-03-15T13:46:15.262Z,39.27
2018-03-15T13:48:43.681Z,20.07
2018-03-15T13:51:12.091Z,21.27
2018-03-15T13:53:40.630Z,21.20
2018-03-15T13:56:09.040Z,21.40
2018-03-15T13:58:37.479Z,24.30
2018-03-15T14:01:06.036Z,20.90
2018-03-15T14:03:34.433Z,22.30
2018-03-15T14:06:02.847Z,29.50
2018-03-15T14:08:31.408Z,25.07
2018-03-15T14:10:59.821Z,24.83
2018-03-15T14:13:28.237Z,21.50
2018-03-15T14:15:56.693Z,25.33
2018-03-15T14:18:25.106Z,24.07
2018-03-15T14:20:53.533Z,29.97
2018-03-15T14:23:22.029Z,20.57
2018-03-15T14:25:50.455Z,22.80
2018-03-15T14:28:19.013Z,18.77
2018-03-15T14:30:47.474Z,20.97
2018-03-15T14:33:15.872Z,21.10
2018-03-15T14:35:44.339Z,23.23
2018-03-15T14:38:12.740Z,19.73
2018-03-15T14:40:41.202Z,22.63
2018-03-15T14:43:09.604Z,19.73
2018-03-15T14:45:38.025Z,22.87
2018-03-15T14:48:06.448Z,21.93
2018-03-15T14:50:34.886Z,21.20
2018-03-15T14:53:03.392Z,28.37
2018-03-15T14:55:31.808Z,21.30
2018-03-15T14:58:00.272Z,24.17
2018-03-15T15:00:28.630Z,18.57
2018-03-15T15:02:57.043Z,23.00
2018-03-15T15:05:25.523Z,28.00
2018-03-15T15:07:53.955Z,23.80
2018-03-15T15:10:22.357Z,21.20
2018-03-15T15:12:50.794Z,26.23
2018-03-15T15:15:19.180Z,19.70
2018-03-15T15:17:47.790Z,26.20
2018-03-15T15:20:16.199Z,19.70
2018-03-15T15:22:44.596Z,26.67
2018-03-15T15:25:13.014Z,25.03
2018-03-15T15:27:41.403Z,22.17
2018-03-15T15:30:10.244Z,25.67
2018-03-15T15:32:38.652Z,26.43
2018-03-15T15:35:07.101Z,26.23
2018-03-15T15:37:35.479Z,30.13
2018-03-15T15:40:03.880Z,34.00
2018-03-15T15:42:32.506Z,32.47
2018-03-15T15:45:01.043Z,33.97
2018-03-15T15:47:29.455Z,33.27
2018-03-15T15:49:58.519Z,30.10
2018-03-15T15:52:26.940Z,31.73
2018-03-15T15:54:55.411Z,34.10
2018-03-15T15:57:23.821Z,34.43
2018-03-15T15:59:52.206Z,31.70
2018-03-15T16:02:20.636Z,30.80
2018-03-15T16:04:49.107Z,38.93
2018-03-15T16:07:17.581Z,35.83
2018-03-15T16:09:45.993Z,32.00
2018-03-15T16:12:14.414Z,37.00
2018-03-15T16:14:42.888Z,31.63
2018-03-15T16:17:11.289Z,34.63
2018-03-15T16:19:39.827Z,32.17
2018-03-15T16:22:08.268Z,33.13
2018-03-15T16:24:36.733Z,37.50
2018-03-15T16:27:05.153Z,33.40
2018-03-15T16:29:33.571Z,36.83
2018-03-15T16:32:02.066Z,38.33
2018-03-15T16:34:30.467Z,38.03
2018-03-15T16:36:58.885Z,37.80
2018-03-15T16:39:27.292Z,32.03
2018-03-15T16:41:55.798Z,35.30
2018-03-15T16:44:24.257Z,32.77
2018-03-15T16:46:52.738Z,32.40
2018-03-15T16:49:21.197Z,31.93
2018-03-15T16:51:49.618Z,34.07
2018-03-15T16:54:18.007Z,33.37
2018-03-15T16:56:46.522Z,30.10
2018-03-15T16:59:14.914Z,35.53
2018-03-15T17:01:43.351Z,35.83
2018-03-15T17:04:11.762Z,37.97
2018-03-15T17:06:40.161Z,34.80
2018-03-15T17:09:08.632Z,37.77
2018-03-15T17:11:37.033Z,38.70
2018-03-15T17:14:05.464Z,35.57
2018-03-15T17:16:33.864Z,35.33
2018-03-15T17:19:02.254Z,39.10
2018-03-15T17:21:30.775Z,35.40
2018-03-15T17:23:59.165Z,35.20
2018-03-15T17:26:27.556Z,36.73
2018-03-15T17:28:55.954Z,37.83
2018-03-15T17:31:24.362Z,36.67
2018-03-15T17:33:52.864Z,38.67
2018-03-15T17:36:21.348Z,39.00
2018-03-15T17:38:49.740Z,36.90
2018-03-15T17:41:18.140Z,39.07
2018-03-15T17:43:46.524Z,35.20
2018-03-15T17:46:14.985Z,33.90
2018-03-15T17:48:43.389Z,37.00
2018-03-15T17:51:11.899Z,34.33
2018-03-15T17:53:40.288Z,36.70
2018-03-15T17:56:10.047Z,38.77
2018-03-15T17:58:38.593Z,36.03
2018-03-15T18:01:07.003Z,35.90
2018-03-15T18:03:35.462Z,36.43
2018-03-15T18:06:03.928Z,41.93
2018-03-15T18:08:32.315Z,38.77
2018-03-15T18:11:00.775Z,36.93
2018-03-15T18:13:29.176Z,39.87
2018-03-15T18:15:57.606Z,41.63
2018-03-15T18:18:26.077Z,39.40
2018-03-15T18:20:54.592Z,41.73
2018-03-15T18:23:23.384Z,40.67
2018-03-15T18:25:51.836Z,40.80
2018-03-15T18:28:20.241Z,36.27
2018-03-15T18:30:48.652Z,39.83
2018-03-15T18:33:17.038Z,39.60
2018-03-15T18:35:45.623Z,36.63
2018-03-15T18:38:14.029Z,40.20
2018-03-15T18:40:42.430Z,38.10
2018-03-15T18:43:10.808Z,34.67
2018-03-15T18:45:39.212Z,37.53
2018-03-15T18:48:07.648Z,39.70
2018-03-15T18:50:36.103Z,35.83
2018-03-15T18:53:04.973Z,37.93
2018-03-15T18:55:33.359Z,35.47
2018-03-15T18:58:01.800Z,37.93
2018-03-15T19:00:30.347Z,37.90
2018-03-15T19:02:58.736Z,36.20
2018-03-15T19:05:27.311Z,40.57
2018-03-15T19:07:55.795Z,40.73
2018-03-15T19:10:24.209Z,36.40
2018-03-15T19:12:52.656Z,37.33
2018-03-15T19:15:21.115Z,40.07
2018-03-15T19:17:49.571Z,39.77
2018-03-15T19:20:18.043Z,38.10
2018-03-15T19:22:46.456Z,41.20
2018-03-15T19:25:14.987Z,35.63
2018-03-15T19:27:43.392Z,40.20
2018-03-15T19:30:11.867Z,38.33
2018-03-15T19:32:40.301Z,40.90
2018-03-15T19:35:08.715Z,36.93
2018-03-15T19:37:37.156Z,38.90
2018-03-15T19:40:05.598Z,40.97
2018-03-15T19:42:34.138Z,42.57
2018-03-15T19:45:02.609Z,45.20
2018-03-15T19:47:30.997Z,42.60
2018-03-15T19:49:59.429Z,35.33
2018-03-15T19:52:27.815Z,40.67
2018-03-15T19:54:56.262Z,39.20
2018-03-15T19:57:24.673Z,39.83
2018-03-15T19:59:53.072Z,35.40
2018-03-15T20:02:21.474Z,44.37
2018-03-15T20:05:08.353Z,42.50
2018-03-15T20:07:36.757Z,42.20
2018-03-15T20:10:05.310Z,47.97
2018-03-15T20:12:33.727Z,42.93
2018-03-15T20:15:02.473Z,43.57
2018-03-15T20:17:31.136Z,38.90
2018-03-15T20:19:59.538Z,42.10
2018-03-15T20:22:34.339Z,41.67
2018-03-15T20:25:02.735Z,42.40
2018-03-15T20:27:36.896Z,35.47
2018-03-15T20:30:05.285Z,43.53
2018-03-15T20:32:39.348Z,46.10
2018-03-15T20:35:07.885Z,39.70
2018-03-15T20:37:36.257Z,43.07
2018-03-15T20:40:10.792Z,40.13
2018-03-15T20:42:39.171Z,39.50
2018-03-15T20:45:07.632Z,40.57
2018-03-15T20:47:42.553Z,45.00
2018-03-15T20:50:10.952Z,42.93
2018-03-15T20:52:39.306Z,47.00
2018-03-15T20:55:07.683Z,47.00
2018-03-15T20:57:36.046Z,45.57
2018-03-15T21:00:04.517Z,48.50
2018-03-15T21:02:32.945Z,41.73
2018-03-15T21:05:01.323Z,41.70
2018-03-15T21:07:29.721Z,44.17
2018-03-15T21:09:58.204Z,43.60
2018-03-15T21:12:26.669Z,43.67
2018-03-15T21:14:55.065Z,43.97
2018-03-15T21:17:23.536Z,44.50
2018-03-15T21:19:51.945Z,49.07
2018-03-15T21:22:20.338Z,46.27
2018-03-15T21:24:48.818Z,45.93
2018-03-15T21:27:17.261Z,48.97
2018-03-15T21:29:45.727Z,45.57
2018-03-15T21:32:14.222Z,45.17
2018-03-15T21:34:42.629Z,43.97
2018-03-15T21:37:11.033Z,49.00
2018-03-15T21:39:39.471Z,41.23
2018-03-15T21:42:07.872Z,43.83
2018-03-15T21:44:36.306Z,46.60
2018-03-15T21:47:04.742Z,42.63
2018-03-15T21:49:33.201Z,57.20
2018-03-15T21:52:01.625Z,42.27
2018-03-15T21:54:30.094Z,43.70
2018-03-15T21:56:58.516Z,43.30
2018-03-15T21:59:26.885Z,48.20
2018-03-15T22:01:55.360Z,45.53
2018-03-15T22:04:23.763Z,45.20
2018-03-15T22:06:52.170Z,47.73
2018-03-15T22:09:20.616Z,49.20
2018-03-15T22:11:49.080Z,48.63
2018-03-15T22:14:17.601Z,46.40
2018-03-15T22:16:46.246Z,46.90
2018-03-15T22:19:14.728Z,49.37
2018-03-15T22:21:43.140Z,46.93
2018-03-15T22:24:12.454Z,49.30
2018-03-15T22:26:40.880Z,49.80
2018-03-15T22:29:09.300Z,50.50
2018-03-15T22:31:37.880Z,44.73
2018-03-15T22:34:06.283Z,46.83
2018-03-15T22:36:34.732Z,50.07
2018-03-15T22:39:03.292Z,44.77
2018-03-15T22:41:31.679Z,48.93
2018-03-15T22:44:00.157Z,51.10
2018-03-15T22:46:28.629Z,52.20
2018-03-15T22:48:57.069Z,47.50
2018-03-15T22:51:25.460Z,49.03
2018-03-15T22:53:54.311Z,54.93
2018-03-15T22:56:22.700Z,60.27
2018-03-15T22:58:51.101Z,54.27
2018-03-15T23:01:19.624Z,60.97
2018-03-15T23:03:48.037Z,51.73
2018-03-15T23:06:16.431Z,53.17
2018-03-15T23:08:44.880Z,53.53
2018-03-15T23:11:13.277Z,58.47
2018-03-15T23:13:41.707Z,57.87
2018-03-15T23:16:10.115Z,59.10
2018-03-15T23:18:38.540Z,66.40
2018-03-15T23:21:07.008Z,58.67
2018-03-15T23:23:35.432Z,64.40
2018-03-15T23:26:03.840Z,57.87
2018-03-15T23:28:32.247Z,61.77
2018-03-15T23:31:00.652Z,65.30
2018-03-15T23:33:29.185Z,58.20
2018-03-15T23:35:57.643Z,58.47
2018-03-15T23:38:26.050Z,64.70
2018-03-15T23:40:54.529Z,62.53
2018-03-15T23:43:22.936Z,65.73
2018-03-15T23:45:51.487Z,62.43
2018-03-15T23:48:19.891Z,64.90
2018-03-15T23:50:48.292Z,60.20
2018-03-15T23:53:16.680Z,65.73
2018-03-15T23:55:45.055Z,69.27
2018-03-15T23:58:13.547Z,67.30
